Time;durP1;ratioP1;P1;durP2;ratioP2;P2;SDS_P1;SDS_P2;PMS_P1;PMS_P2;Temp;Humidity;BMP_temperature;BMP_pressure;BME280_temperature;BME280_humidity;BME280_pressure;Samples;Min_cycle;Max_cycle;Signal;HPM_P1;HPM_P2
2024/01/03 00:00:45;;;;;;;6.53;3.80;;;;;;;5.35;70.61;91437.00;2067126;69;20175;-76
2024/01/03 00:03:17;;;;;;;8.82;3.45;;;;;;;5.37;70.69;91442.69;2071465;69;20167;-77
2024/01/03 00:05:45;;;;;;;6.28;3.80;;;;;;;5.33;70.96;91439.66;2071861;69;20248;-78
2024/01/03 00:08:20;;;;;;;7.97;3.78;;;;;;;5.42;70.02;91446.47;2068273;69;20144;-77
2024/01/03 00:10:50;;;;;;;6.32;3.30;;;;;;;5.56;69.69;91442.44;2072075;69;20156;-76
2024/01/03 00:13:30;;;;;;;7.10;3.42;;;;;;;5.60;69.62;91441.94;2066436;69;20586;-76
2024/01/03 00:16:17;;;;;;;9.07;4.60;;;;;;;5.38;70.47;91430.19;2067404;69;20233;-80
2024/01/03 00:18:54;;;;;;;7.72;3.83;;;;;;;5.56;70.00;91434.06;2067131;69;20636;-79
2024/01/03 00:21:25;;;;;;;6.97;3.70;;;;;;;5.60;69.52;91425.94;2064324;69;20161;-78
2024/01/03 00:24:00;;;;;;;6.38;3.05;;;;;;;5.56;70.33;91419.38;2071623;69;20152;-79
2024/01/03 00:26:28;;;;;;;5.15;2.20;;;;;;;5.63;70.88;91426.75;2071751;69;20140;-79
2024/01/03 00:28:54;;;;;;;5.60;2.83;;;;;;;5.59;70.98;91432.84;2067637;69;20235;-76
2024/01/03 00:31:38;;;;;;;6.32;3.33;;;;;;;5.42;71.12;91463.94;2071717;69;20168;-76
2024/01/03 00:34:20;;;;;;;6.03;3.40;;;;;;;5.43;70.85;91454.22;2070277;69;20249;-76
2024/01/03 00:39:46;;;;;;;7.50;3.13;;;;;;;5.56;70.20;91459.19;2069095;69;20247;-78
2024/01/03 00:42:12;;;;;;;6.57;3.20;;;;;;;5.40;71.19;91460.28;2071068;69;20583;-76
2024/01/03 00:44:38;;;;;;;5.90;3.10;;;;;;;5.42;70.99;91469.50;2071784;69;20148;-76
2024/01/03 00:47:04;;;;;;;9.13;3.70;;;;;;;5.42;71.44;91463.22;2071878;69;20176;-78
2024/01/03 00:49:30;;;;;;;4.72;2.90;;;;;;;5.44;70.52;91457.72;2070057;69;20160;-77
2024/01/03 00:51:56;;;;;;;5.40;2.47;;;;;;;5.55;70.32;91457.72;2070507;69;20595;-80
2024/01/03 00:54:24;;;;;;;5.35;2.53;;;;;;;5.59;70.98;91482.38;2069943;69;20152;-80
2024/01/03 00:56:52;;;;;;;3.55;1.98;;;;;;;5.51;72.34;91481.88;2073877;69;20148;-78
2024/01/03 00:59:18;;;;;;;4.55;2.80;;;;;;;5.44;71.81;91488.44;2071905;69;20156;-76
2024/01/03 01:01:44;;;;;;;3.40;2.47;;;;;;;5.50;71.07;91486.75;2071500;69;20617;-78
2024/01/03 01:04:13;;;;;;;6.30;2.95;;;;;;;5.43;71.79;91492.56;2073079;69;20152;-78
2024/01/03 01:06:42;;;;;;;4.10;2.60;;;;;;;5.52;71.29;91500.81;2067706;69;20160;-77
2024/01/03 01:09:25;;;;;;;6.35;2.72;;;;;;;5.51;71.88;91491.00;2068049;69;20467;-77
2024/01/03 01:11:51;;;;;;;;;;;;;;;5.64;71.55;91497.31;2071382;69;20137;-78
2024/01/03 01:14:18;;;;;;;5.10;2.50;;;;;;;5.32;73.74;91514.28;2071459;69;20105;-76
2024/01/03 01:16:53;;;;;;;5.28;2.80;;;;;;;5.30;73.71;91513.44;2070552;69;20191;-79
2024/01/03 01:19:19;;;;;;;5.40;3.00;;;;;;;5.23;73.69;91494.88;2070929;69;20186;-77
2024/01/03 01:21:47;;;;;;;5.05;3.00;;;;;;;5.20;73.58;91505.16;2070770;69;20239;-80
2024/01/03 01:24:15;;;;;;;6.03;3.00;;;;;;;5.42;73.25;91510.66;2068763;69;20225;-80
2024/01/03 01:26:41;;;;;;;5.03;3.10;;;;;;;5.48;72.54;91519.38;2067863;69;20160;-81
2024/01/03 01:29:06;;;;;;;4.22;2.60;;;;;;;5.53;72.78;91518.28;2067873;69;20169;-80
2024/01/03 01:31:32;;;;;;;4.00;2.40;;;;;;;5.56;73.60;91525.47;2071406;69;20818;-80
2024/01/03 01:33:58;;;;;;;5.60;2.78;;;;;;;5.31;74.11;91532.38;2071372;69;20507;-80
2024/01/03 01:36:25;;;;;;;4.43;2.55;;;;;;;5.40;74.66;91539.16;2073335;69;20144;-80
2024/01/03 01:38:51;;;;;;;4.38;2.78;;;;;;;5.39;74.33;91532.13;2069236;69;20176;-81
2024/01/03 01:41:16;;;;;;;4.63;2.67;;;;;;;5.29;76.85;91525.94;2072200;69;20141;-77
2024/01/03 01:43:42;;;;;;;4.05;2.45;;;;;;;5.39;75.23;91515.38;2072252;69;20143;-78
2024/01/03 01:46:10;;;;;;;2.85;1.67;;;;;;;5.42;75.70;91516.97;2071576;69;20591;-78
2024/01/03 01:48:35;;;;;;;2.25;1.65;;;;;;;5.47;76.34;91518.66;2070955;69;20152;-77
2024/01/03 01:51:02;;;;;;;2.70;2.00;;;;;;;5.53;75.41;91515.50;2070255;69;20610;-77
2024/01/03 01:53:28;;;;;;;2.40;1.75;;;;;;;5.64;75.43;91533.59;2070979;69;20159;-80
2024/01/03 01:55:54;;;;;;;3.45;1.55;;;;;;;5.48;77.86;91534.06;2071682;69;20550;-76
2024/01/03 01:58:22;;;;;;;3.63;1.73;;;;;;;5.45;75.77;91520.59;2071338;69;20140;-77
2024/01/03 02:00:48;;;;;;;2.97;1.85;;;;;;;5.30;74.46;91519.00;2068180;69;20171;-79
2024/01/03 02:03:15;;;;;;;2.80;2.00;;;;;;;5.45;74.76;91517.78;2071646;69;20707;-79
2024/01/03 02:05:43;;;;;;;2.85;1.90;;;;;;;5.44;75.72;91514.28;2070914;69;20565;-78
2024/01/03 02:08:10;;;;;;;1.83;1.40;;;;;;;5.50;76.97;91516.72;2071135;69;20156;-80
2024/01/03 02:10:35;;;;;;;3.10;1.38;;;;;;;5.62;74.81;91528.59;2071558;69;20139;-78
2024/01/03 02:13:01;;;;;;;2.25;1.30;;;;;;;5.57;74.57;91541.59;2071506;69;20202;-80
2024/01/03 02:15:27;;;;;;;2.40;1.50;;;;;;;5.57;74.58;91543.66;2071641;69;20519;-79
2024/01/03 02:17:58;;;;;;;1.88;1.38;;;;;;;5.50;75.08;91544.63;2068318;69;20140;-79
2024/01/03 02:20:25;;;;;;;1.70;1.20;;;;;;;5.53;75.40;91558.09;2070222;69;20704;-78
2024/01/03 02:22:51;;;;;;;2.97;1.55;;;;;;;5.65;76.11;91551.81;2071525;69;20147;-77
2024/01/03 02:25:17;;;;;;;3.28;1.45;;;;;;;5.69;76.37;91538.81;2071238;69;20608;-77
2024/01/03 02:27:42;;;;;;;1.70;1.30;;;;;;;5.62;75.57;91550.94;2071551;69;20159;-80
2024/01/03 02:30:09;;;;;;;2.20;1.40;;;;;;;5.68;75.99;91533.81;2068277;69;20611;-80
2024/01/03 02:32:35;;;;;;;2.38;1.60;;;;;;;5.74;75.61;91523.03;2068226;69;20538;-82
2024/01/03 02:35:00;;;;;;;2.00;1.30;;;;;;;5.66;76.24;91511.38;2070565;69;20148;-80
2024/01/03 02:37:26;;;;;;;2.42;1.10;;;;;;;5.73;75.80;91525.09;2071420;69;20179;-82
2024/01/03 02:39:52;;;;;;;1.67;1.10;;;;;;;5.60;75.25;91506.16;2071295;69;20152;-81
2024/01/03 02:42:18;;;;;;;2.97;1.20;;;;;;;5.58;76.92;91531.88;2068140;69;20168;-82
2024/01/03 02:44:43;;;;;;;2.25;1.23;;;;;;;5.49;76.50;91538.31;2071097;69;20241;-82
2024/01/03 02:47:09;;;;;;;1.77;1.20;;;;;;;5.26;76.29;91536.22;2071375;69;20194;-79
2024/01/03 02:49:35;;;;;;;2.75;1.40;;;;;;;5.29;77.41;91532.22;2071284;69;20167;-80
2024/01/03 02:52:00;;;;;;;1.75;1.30;;;;;;;5.11;78.17;91539.50;2071374;69;20148;-80
2024/01/03 02:54:28;;;;;;;2.33;1.50;;;;;;;5.25;76.59;91542.41;2071798;69;20683;-79
2024/01/03 02:56:54;;;;;;;2.13;1.25;;;;;;;5.20;76.99;91532.34;2074941;69;20618;-80
2024/01/03 02:59:20;;;;;;;1.75;1.35;;;;;;;5.12;76.48;91524.19;2074978;69;20148;-81
2024/01/03 03:01:45;;;;;;;1.90;1.30;;;;;;;5.16;76.28;91520.94;2072774;69;20148;-82
2024/01/03 03:04:12;;;;;;;1.45;1.10;;;;;;;4.93;77.65;91516.03;2071237;69;20607;-81
2024/01/03 03:06:38;;;;;;;2.25;1.40;;;;;;;4.71;78.54;91518.91;2071337;69;20619;-80
2024/01/03 03:09:04;;;;;;;3.33;1.55;;;;;;;4.90;77.41;91523.53;2071309;69;20180;-82
2024/01/03 03:11:30;;;;;;;2.38;1.38;;;;;;;4.93;76.86;91513.97;2069965;69;20221;-79
2024/01/03 03:13:55;;;;;;;2.38;1.10;;;;;;;4.86;77.30;91520.53;2071575;69;20152;-80
2024/01/03 03:16:21;;;;;;;1.85;1.20;;;;;;;4.58;78.16;91486.00;2071481;69;20164;-80
2024/01/03 03:18:46;;;;;;;1.80;1.10;;;;;;;4.61;78.78;91493.19;2071417;69;20162;-80
2024/01/03 03:21:12;;;;;;;2.55;1.15;;;;;;;4.61;78.26;91498.03;2071075;69;20154;-80
2024/01/03 03:23:39;;;;;;;1.00;0.90;;;;;;;4.66;77.76;91469.06;2071190;69;20593;-79
2024/01/03 03:26:04;;;;;;;2.15;1.40;;;;;;;4.61;78.53;91481.31;2071058;69;20172;-80
2024/01/03 03:28:31;;;;;;;1.63;1.20;;;;;;;4.62;78.42;91480.69;2071299;69;20205;-80
2024/01/03 03:30:56;;;;;;;1.30;1.00;;;;;;;4.67;78.28;91509.53;2071291;69;20164;-79
2024/01/03 03:33:22;;;;;;;2.75;1.10;;;;;;;4.62;78.60;91528.06;2071203;69;20484;-79
2024/01/03 03:35:48;;;;;;;1.88;1.20;;;;;;;4.59;78.44;91524.44;2071536;69;20147;-80
2024/01/03 03:38:13;;;;;;;1.45;1.23;;;;;;;4.51;78.67;91529.50;2071139;69;20160;-80
2024/01/03 03:40:40;;;;;;;2.08;1.30;;;;;;;4.62;78.38;91507.84;2070637;69;20512;-81
2024/01/03 03:43:11;;;;;;;2.60;1.30;;;;;;;4.63;77.98;91514.88;2071268;69;20152;-80
2024/01/03 03:45:41;;;;;;;3.20;1.20;;;;;;;4.62;78.19;91525.28;2067911;69;20221;-81
2024/01/03 03:48:07;;;;;;;4.97;1.38;;;;;;;4.48;78.98;91535.53;2071261;69;20175;-79
2024/01/03 03:50:32;;;;;;;1.70;1.35;;;;;;;4.49;78.42;91531.41;2070725;69;20472;-77
2024/01/03 03:52:58;;;;;;;2.95;1.30;;;;;;;4.60;77.82;91533.53;2071032;69;20148;-79
2024/01/03 03:55:23;;;;;;;4.30;1.55;;;;;;;4.52;77.72;91530.22;2068212;69;20631;-80
2024/01/03 03:57:49;;;;;;;3.28;1.55;;;;;;;4.24;78.90;91509.63;2071468;69;20144;-80
2024/01/03 04:00:15;;;;;;;4.25;1.70;;;;;;;4.11;80.78;91504.63;2071581;69;20163;-78
2024/01/03 04:02:40;;;;;;;3.10;1.63;;;;;;;4.33;78.52;91487.28;2071147;69;20128;-80
2024/01/03 04:05:06;;;;;;;3.25;1.38;;;;;;;4.27;79.01;91470.19;2070941;69;20230;-77
2024/01/03 04:07:32;;;;;;;1.55;1.30;;;;;;;4.33;78.74;91483.75;2071285;69;20243;-76
2024/01/03 04:09:58;;;;;;;1.90;1.40;;;;;;;4.11;79.40;91488.63;2071281;69;20151;-81
2024/01/03 04:12:23;;;;;;;4.05;1.30;;;;;;;4.20;78.96;91482.25;2070939;69;20168;-82
2024/01/03 04:14:49;;;;;;;1.25;1.10;;;;;;;4.25;78.63;91489.53;2071335;69;20155;-82
2024/01/03 04:17:15;;;;;;;1.95;1.30;;;;;;;4.31;78.27;91486.44;2070572;69;20176;-80
2024/01/03 04:19:41;;;;;;;2.15;1.40;;;;;;;4.25;78.17;91499.94;2071071;69;20208;-78
2024/01/03 04:22:07;;;;;;;1.80;1.40;;;;;;;3.99;79.82;91504.56;2070359;69;20176;-81
2024/01/03 04:24:33;;;;;;;1.83;1.35;;;;;;;4.13;79.32;91490.84;2071032;69;20161;-81
2024/01/03 04:26:58;;;;;;;2.55;1.10;;;;;;;4.15;79.88;91477.03;2071384;69;20144;-79
2024/01/03 04:29:24;;;;;;;2.08;1.30;;;;;;;4.26;78.89;91470.75;2071769;69;20176;-78
2024/01/03 04:31:49;;;;;;;3.30;1.80;;;;;;;3.72;80.72;91469.44;2071643;69;20145;-82
2024/01/03 04:34:15;;;;;;;4.25;1.75;;;;;;;3.59;81.75;91481.09;2071648;69;20649;-79
2024/01/03 04:36:40;;;;;;;4.68;1.50;;;;;;;3.80;80.48;91464.41;2071470;69;20168;-79
2024/01/03 04:39:06;;;;;;;4.30;1.75;;;;;;;4.01;79.40;91460.84;2071382;69;20175;-78
2024/01/03 04:41:32;;;;;;;2.88;1.50;;;;;;;4.11;78.69;91463.56;2071004;69;20680;-79
2024/01/03 04:43:58;;;;;;;2.83;1.55;;;;;;;4.00;79.29;91475.38;2071808;69;20156;-80
2024/01/03 04:46:24;;;;;;;5.68;3.60;;;;;;;3.88;80.39;91466.97;2068551;69;20451;-79
2024/01/03 04:48:49;;;;;;;3.42;2.22;;;;;;;4.15;79.05;91496.53;2070573;69;20236;-81
2024/01/03 04:51:15;;;;;;;3.30;1.67;;;;;;;3.74;81.83;91514.09;2071026;69;20145;-80
2024/01/03 04:53:41;;;;;;;4.05;1.98;;;;;;;3.59;82.65;91536.03;2071828;69;20616;-80
2024/01/03 04:56:06;;;;;;;6.28;2.17;;;;;;;3.88;80.54;91544.19;2071822;69;20152;-81
2024/01/03 04:58:32;;;;;;;7.47;2.60;;;;;;;3.97;80.38;91532.25;2071788;69;20556;-81
2024/01/03 05:00:58;;;;;;;5.13;2.63;;;;;;;4.04;79.89;91534.13;2071301;69;20167;-79
2024/01/03 05:03:23;;;;;;;7.10;3.13;;;;;;;3.72;81.58;91530.66;2071136;69;20300;-78
2024/01/03 05:05:49;;;;;;;8.95;4.95;;;;;;;3.91;80.95;91526.31;2071506;69;20152;-81
2024/01/03 05:08:15;;;;;;;5.50;3.47;;;;;;;4.07;81.72;91541.28;2071702;69;20140;-78
2024/01/03 05:10:41;;;;;;;5.75;3.92;;;;;;;4.27;79.85;91536.31;2071553;69;20599;-80
2024/01/03 05:13:07;;;;;;;6.47;3.70;;;;;;;4.29;79.47;91528.78;2074337;69;20175;-79
2024/01/03 05:15:32;;;;;;;6.13;3.13;;;;;;;4.33;79.34;91543.00;2072433;69;20149;-81
2024/01/03 05:17:58;;;;;;;4.32;2.97;;;;;;;4.35;79.47;91531.25;2071256;69;20688;-77
2024/01/03 05:20:24;;;;;;;3.10;2.13;;;;;;;4.39;79.29;91530.78;2071152;69;20315;-82
2024/01/03 05:22:49;;;;;;;5.35;2.83;;;;;;;4.13;79.57;91538.91;2071441;69;20527;-80
2024/01/03 05:25:15;;;;;;;5.03;2.88;;;;;;;4.17;80.03;91527.28;2071611;69;20144;-76
2024/01/03 05:27:41;;;;;;;8.82;3.42;;;;;;;4.34;79.31;91515.84;2071601;69;20543;-77
2024/01/03 05:30:07;;;;;;;5.10;3.42;;;;;;;3.69;81.74;91506.81;2071690;69;20227;-80
2024/01/03 05:32:32;;;;;;;6.70;3.78;;;;;;;3.85;81.87;91507.16;2070806;69;20184;-79
2024/01/03 05:34:58;;;;;;;8.32;4.38;;;;;;;4.01;80.92;91502.63;2071078;69;20164;-81
2024/01/03 05:37:24;;;;;;;7.43;4.05;;;;;;;4.11;79.72;91499.75;2071351;69;20607;-82
2024/01/03 05:39:49;;;;;;;14.25;5.15;;;;;;;3.91;81.51;91507.53;2071587;69;20151;-82
2024/01/03 05:42:15;;;;;;;10.23;5.72;;;;;;;3.83;82.20;91518.16;2071553;69;20144;-79
2024/01/03 05:44:40;;;;;;;8.75;4.57;;;;;;;4.16;79.38;91503.53;2071426;69;20235;-80
2024/01/03 05:47:06;;;;;;;8.55;5.03;;;;;;;4.11;80.18;91502.56;2071395;69;20167;-83
2024/01/03 05:49:34;;;;;;;4.85;3.38;;;;;;;4.05;80.82;91500.09;2070928;69;20230;-79
2024/01/03 05:51:59;;;;;;;8.90;5.00;;;;;;;3.75;81.98;91500.91;2070930;69;20144;-80
2024/01/03 05:54:26;;;;;;;10.13;4.47;;;;;;;3.84;81.75;91508.47;2071140;69;20680;-82
2024/01/03 05:56:52;;;;;;;8.68;4.63;;;;;;;4.03;80.34;91508.34;2070893;69;20603;-78
2024/01/03 05:59:17;;;;;;;6.25;3.78;;;;;;;4.04;79.91;91498.66;2068234;69;20141;-79
2024/01/03 06:01:45;;;;;;;8.93;3.90;;;;;;;3.83;80.64;91496.59;2070947;69;20253;-83
2024/01/03 06:04:12;;;;;;;8.23;3.78;;;;;;;3.81;80.60;91495.75;2071015;69;20144;-79
2024/01/03 06:06:37;;;;;;;6.93;3.67;;;;;;;3.96;80.22;91489.78;2069140;69;20151;-79
2024/01/03 06:09:03;;;;;;;7.55;3.60;;;;;;;3.74;80.41;91499.44;2073823;69;20152;-81
2024/01/03 06:11:28;;;;;;;7.75;3.85;;;;;;;3.85;80.85;91498.81;2071143;69;20144;-77
2024/01/03 06:13:54;;;;;;;7.60;3.85;;;;;;;3.72;82.20;91516.75;2070681;69;20245;-75
2024/01/03 06:16:21;;;;;;;5.20;2.97;;;;;;;3.99;80.98;91538.72;2070315;69;20148;-75
2024/01/03 06:18:47;;;;;;;6.40;4.63;;;;;;;3.70;83.41;91549.28;2071580;69;20231;-77
2024/01/03 06:21:13;;;;;;;7.78;4.25;;;;;;;3.72;83.51;91564.06;2071661;69;20167;-79
2024/01/03 06:23:40;;;;;;;10.20;4.28;;;;;;;3.98;81.89;91567.13;2071286;69;20237;-80
2024/01/03 06:26:06;;;;;;;11.88;6.28;;;;;;;4.08;81.13;91562.97;2068164;69;20300;-79
2024/01/03 06:28:32;;;;;;;12.10;6.50;;;;;;;4.15;80.50;91558.53;2071339;69;20236;-80
2024/01/03 06:30:57;;;;;;;13.88;5.90;;;;;;;3.98;80.92;91548.38;2070774;69;20221;-80
2024/01/03 06:33:23;;;;;;;13.98;7.57;;;;;;;3.85;81.23;91520.31;2071538;69;20136;-79
2024/01/03 06:35:49;;;;;;;7.68;4.10;;;;;;;3.78;82.77;91511.56;2071425;69;20152;-78
2024/01/03 06:38:14;;;;;;;9.80;5.63;;;;;;;3.33;84.31;91504.38;2071597;69;20198;-81
2024/01/03 06:40:40;;;;;;;7.82;4.68;;;;;;;3.74;82.72;91488.31;2070835;69;20618;-78
2024/01/03 06:43:06;;;;;;;6.95;4.50;;;;;;;3.83;81.48;91498.66;2071721;69;20326;-80
2024/01/03 06:45:33;;;;;;;5.07;3.72;;;;;;;3.93;80.53;91509.72;2071467;69;20125;-81
2024/01/03 06:47:59;;;;;;;4.88;3.08;;;;;;;3.83;80.45;91479.91;2070906;69;20159;-81
2024/01/03 06:50:24;;;;;;;12.85;6.20;;;;;;;3.39;83.66;91504.75;2070851;69;20192;-78
2024/01/03 06:52:50;;;;;;;16.75;5.93;;;;;;;3.69;82.18;91526.28;2070084;69;20183;-80
2024/01/03 06:55:16;;;;;;;10.13;4.85;;;;;;;3.72;81.56;91516.03;2070034;69;20293;-78
2024/01/03 06:57:42;;;;;;;6.25;3.10;;;;;;;3.71;82.02;91518.09;2071390;69;20261;-81
2024/01/03 07:00:08;;;;;;;5.20;2.83;;;;;;;3.62;82.44;91529.25;2065297;69;20146;-83
2024/01/03 07:02:33;;;;;;;12.00;5.97;;;;;;;3.45;84.33;91544.16;2071239;69;20247;-80
2024/01/03 07:04:59;;;;;;;6.90;4.20;;;;;;;3.52;83.26;91543.22;2070049;69;20132;-81
2024/01/03 07:07:24;;;;;;;7.18;3.50;;;;;;;3.60;82.89;91545.81;2071531;69;20556;-79
2024/01/03 07:09:50;;;;;;;6.82;4.07;;;;;;;3.65;82.27;91567.03;2069948;69;20192;-81
2024/01/03 07:12:16;;;;;;;17.05;8.18;;;;;;;3.46;83.45;91573.41;2071292;69;20702;-78
2024/01/03 07:14:41;;;;;;;15.88;7.15;;;;;;;3.60;82.07;91568.81;2067881;69;20147;-78
2024/01/03 07:17:07;;;;;;;16.70;8.00;;;;;;;3.72;80.83;91566.13;2071186;69;20144;-78
2024/01/03 07:19:32;;;;;;;14.52;6.07;;;;;;;3.75;80.88;91554.50;2068600;69;20184;-81
2024/01/03 07:21:58;;;;;;;12.00;5.97;;;;;;;3.86;80.16;91563.56;2070769;69;20543;-81
2024/01/03 07:24:24;;;;;;;13.05;6.63;;;;;;;3.92;80.34;91559.13;2071098;69;20225;-85
2024/01/03 07:26:49;;;;;;;14.02;8.30;;;;;;;3.66;81.98;91562.91;2068537;69;20220;-80
2024/01/03 07:29:15;;;;;;;15.00;7.75;;;;;;;3.70;82.11;91568.75;2071566;69;20148;-84
2024/01/03 07:31:40;;;;;;;15.20;7.63;;;;;;;3.73;81.46;91559.97;2071613;69;20176;-84
2024/01/03 07:34:06;;;;;;;10.20;6.40;;;;;;;3.82;80.33;91547.31;2071304;69;20607;-84
2024/01/03 07:36:32;;;;;;;85.32;32.35;;;;;;;3.63;81.27;91553.00;2071024;69;20523;-81
2024/01/03 07:39:00;;;;;;;58.60;24.08;;;;;;;3.68;80.88;91561.00;2071297;69;20184;-82
2024/01/03 07:41:26;;;;;;;36.65;15.10;;;;;;;3.76;80.23;91571.97;2068205;69;20153;-81
2024/01/03 07:43:51;;;;;;;50.80;19.63;;;;;;;3.68;80.34;91565.84;2068370;69;20166;-84
2024/01/03 07:46:18;;;;;;;50.20;18.92;;;;;;;3.67;80.30;91559.56;2071902;69;20160;-79
2024/01/03 07:48:43;;;;;;;29.40;13.75;;;;;;;3.70;80.22;91552.06;2072260;69;20202;-81
2024/01/03 07:51:10;;;;;;;47.83;22.60;;;;;;;3.44;82.14;91574.03;2071748;69;20156;-81
2024/01/03 07:53:37;;;;;;;39.00;18.73;;;;;;;3.64;81.11;91573.94;2068227;69;20148;-80
2024/01/03 07:56:06;;;;;;;36.33;18.45;;;;;;;3.68;80.49;91577.72;2072221;69;20231;-80
2024/01/03 07:58:31;;;;;;;31.58;16.17;;;;;;;3.64;80.71;91563.53;2073707;69;20156;-81
2024/01/03 08:00:57;;;;;;;23.73;12.52;;;;;;;3.69;80.35;91570.09;2071521;69;20249;-79
2024/01/03 08:03:23;;;;;;;29.02;15.30;;;;;;;3.42;80.68;91585.00;2071705;69;20144;-82
2024/01/03 08:05:48;;;;;;;32.67;15.77;;;;;;;3.58;80.69;91581.88;2072583;69;20141;-82
2024/01/03 08:08:14;;;;;;;31.50;16.00;;;;;;;3.64;80.31;91563.53;2072761;69;20176;-81
2024/01/03 08:10:40;;;;;;;26.13;13.50;;;;;;;3.70;79.92;91572.28;2074086;69;20145;-82
2024/01/03 08:13:05;;;;;;;17.42;9.38;;;;;;;3.71;80.37;91578.56;2071950;69;20152;-81
2024/01/03 08:15:31;;;;;;;23.27;12.18;;;;;;;3.34;83.06;91587.22;2072003;69;20588;-81
2024/01/03 08:17:57;;;;;;;19.80;10.95;;;;;;;3.53;81.64;91595.50;2071992;69;20151;-80
2024/01/03 08:20:22;;;;;;;21.10;11.18;;;;;;;3.59;81.38;91578.50;2065605;69;20148;-81
2024/01/03 08:22:49;;;;;;;18.17;10.57;;;;;;;3.65;81.29;91586.50;2071758;69;20143;-80
2024/01/03 08:25:15;;;;;;;16.55;8.70;;;;;;;3.60;81.78;91585.50;2071327;69;20180;-80
2024/01/03 08:27:40;;;;;;;17.02;8.95;;;;;;;3.53;81.36;91587.16;2068793;69;20217;-80
2024/01/03 08:30:07;;;;;;;13.05;7.43;;;;;;;3.67;81.40;91595.75;2071746;69;20630;-80
2024/01/03 08:32:35;;;;;;;11.13;6.75;;;;;;;3.78;80.47;91597.88;2071970;69;20140;-79
2024/01/03 08:35:01;;;;;;;11.10;6.00;;;;;;;3.77;80.09;91598.47;2071869;69;20149;-81
2024/01/03 08:37:29;;;;;;;17.23;9.25;;;;;;;3.53;80.61;91592.72;2071750;69;20206;-80
2024/01/03 08:39:55;;;;;;;17.92;8.00;;;;;;;3.71;80.31;91596.03;2071897;69;20627;-82
2024/01/03 08:42:23;;;;;;;15.20;8.45;;;;;;;3.72;79.88;91597.47;2071930;69;20136;-81
2024/01/03 08:44:49;;;;;;;25.15;12.43;;;;;;;3.61;80.56;91591.81;2071332;69;20140;-82
2024/01/03 08:47:14;;;;;;;25.15;13.13;;;;;;;3.61;81.44;91600.88;2071322;69;20225;-82
2024/01/03 08:49:42;;;;;;;21.38;11.65;;;;;;;3.76;80.64;91605.38;2071685;69;20188;-83
2024/01/03 08:52:08;;;;;;;22.50;11.65;;;;;;;3.93;80.25;91607.16;2071888;69;20152;-82
2024/01/03 08:54:33;;;;;;;24.23;12.27;;;;;;;3.92;82.69;91594.59;2068495;69;20136;-83
2024/01/03 08:57:00;;;;;;;28.30;13.77;;;;;;;3.69;82.79;91609.78;2068730;69;20499;-83
2024/01/03 08:59:26;;;;;;;25.17;12.48;;;;;;;4.21;82.76;91600.69;2072001;69;20578;-80
2024/01/03 09:01:52;;;;;;;20.70;10.73;;;;;;;4.91;81.64;91596.81;2071593;69;20156;-78
2024/01/03 09:04:18;;;;;;;16.88;7.97;;;;;;;5.31;81.15;91596.56;2071681;69;20148;-79
2024/01/03 09:06:44;;;;;;;18.13;9.80;;;;;;;5.54;80.25;91595.84;2072088;69;20144;-78
2024/01/03 09:09:09;;;;;;;16.52;8.85;;;;;;;5.81;79.14;91587.00;2072113;69;20185;-84
2024/01/03 09:11:36;;;;;;;17.02;8.20;;;;;;;6.21;79.51;91601.22;2072212;69;20206;-84
2024/01/03 09:14:02;;;;;;;19.58;8.02;;;;;;;6.33;77.50;91602.66;2068527;69;20519;-83
2024/01/03 09:16:30;;;;;;;13.20;6.35;;;;;;;6.72;77.77;91593.69;2071524;69;20160;-84
2024/01/03 09:18:56;;;;;;;13.13;8.10;;;;;;;6.41;76.13;91607.97;2071270;69;20588;-84
2024/01/03 09:21:26;;;;;;;14.63;7.50;;;;;;;6.92;75.37;91610.16;2071452;69;20186;-85
2024/01/03 09:23:52;;;;;;;13.80;8.15;;;;;;;7.31;75.04;91610.97;2072007;69;20140;-84
2024/01/03 09:26:22;;;;;;;18.58;9.57;;;;;;;7.42;72.97;91609.44;2071885;69;20144;-84
2024/01/03 09:28:48;;;;;;;21.88;11.60;;;;;;;7.75;72.05;91603.53;2071925;69;20206;-84
2024/01/03 09:31:15;;;;;;;14.60;8.07;;;;;;;7.79;71.38;91600.94;2071485;69;20136;-84
2024/01/03 09:33:40;;;;;;;13.23;7.50;;;;;;;8.25;71.53;91606.81;2071912;69;20523;-81
2024/01/03 09:36:15;;;;;;;13.65;8.25;;;;;;;7.71;71.28;91614.50;2068527;69;20143;-77
2024/01/03 09:38:41;;;;;;;14.13;7.80;;;;;;;8.40;71.47;91620.94;2071932;69;20236;-78
2024/01/03 09:41:12;;;;;;;9.25;5.90;;;;;;;8.72;68.77;91620.41;2071689;69;20211;-78
2024/01/03 09:43:41;;;;;;;7.50;4.10;;;;;;;9.10;68.67;91619.50;2071855;69;20144;-79
2024/01/03 09:46:09;;;;;;;4.13;2.50;;;;;;;9.04;66.30;91610.78;2071563;69;20152;-79
2024/01/03 09:48:35;;;;;;;3.35;1.98;;;;;;;9.13;65.15;91620.34;2071839;69;20175;-79
2024/01/03 09:51:03;;;;;;;6.90;3.95;;;;;;;8.44;66.88;91622.50;2071646;69;20594;-81
2024/01/03 09:53:31;;;;;;;8.77;4.22;;;;;;;9.36;67.18;91622.13;2071827;69;20587;-80
2024/01/03 09:55:56;;;;;;;8.80;4.53;;;;;;;9.59;65.21;91638.69;2068444;69;20144;-80
2024/01/03 09:58:24;;;;;;;9.23;3.80;;;;;;;9.76;64.40;91631.00;2071818;69;20530;-79
2024/01/03 10:00:50;;;;;;;6.38;3.70;;;;;;;10.43;65.06;91623.53;2071408;69;20160;-80
2024/01/03 10:03:19;;;;;;;6.45;3.17;;;;;;;10.78;62.27;91615.88;2068377;69;20140;-80
2024/01/03 10:05:44;;;;;;;6.65;4.18;;;;;;;10.04;62.96;91623.88;2071444;69;20254;-79
2024/01/03 10:08:15;;;;;;;5.72;3.42;;;;;;;10.85;62.03;91618.28;2071584;69;20743;-80
2024/01/03 10:10:41;;;;;;;6.05;3.53;;;;;;;11.44;61.28;91617.91;2071771;69;20156;-79
2024/01/03 10:13:18;;;;;;;6.32;3.28;;;;;;;11.97;60.26;91605.19;2071643;69;20556;-79
2024/01/03 10:15:45;;;;;;;5.10;3.03;;;;;;;12.44;59.13;91610.44;2068415;69;20175;-79
2024/01/03 10:18:11;;;;;;;4.15;2.60;;;;;;;12.31;58.53;91605.72;2071118;69;20148;-79
2024/01/03 10:20:37;;;;;;;4.95;2.55;;;;;;;11.85;58.08;91596.97;2071354;69;20164;-79
2024/01/03 10:23:09;;;;;;;5.43;3.00;;;;;;;12.92;57.79;91576.84;2071770;69;20584;-80
2024/01/03 10:25:35;;;;;;;7.07;3.23;;;;;;;13.86;57.37;91568.59;2071559;69;20222;-78
2024/01/03 10:28:02;;;;;;;4.07;2.90;;;;;;;14.05;52.11;91575.50;2071659;69;20136;-79
2024/01/03 10:30:29;;;;;;;3.25;2.00;;;;;;;14.67;51.03;91575.91;2071799;69;20140;-84
2024/01/03 10:33:03;;;;;;;4.72;2.80;;;;;;;15.09;51.31;91569.94;2071874;69;20168;-85
2024/01/03 10:35:33;;;;;;;2.35;1.73;;;;;;;15.03;50.22;91572.63;2071633;69;20148;-84
2024/01/03 10:38:00;;;;;;;5.22;2.92;;;;;;;16.11;50.47;91563.19;2071758;69;20156;-84
2024/01/03 10:40:30;;;;;;;5.95;2.70;;;;;;;16.27;48.71;91563.56;2068324;69;20152;-85
2024/01/03 10:42:56;;;;;;;4.43;2.65;;;;;;;16.42;49.01;91570.97;2071798;69;20531;-84
2024/01/03 10:45:23;;;;;;;3.80;2.30;;;;;;;14.75;50.89;91575.41;2071884;69;20179;-84
2024/01/03 10:47:49;;;;;;;4.30;2.50;;;;;;;16.84;47.05;91549.81;2071861;69;20527;-83
2024/01/03 10:50:15;;;;;;;3.55;2.20;;;;;;;16.85;45.75;91562.63;2071466;69;20144;-84
2024/01/03 10:52:42;;;;;;;2.92;1.95;;;;;;;14.20;48.80;91562.50;2071558;69;20152;-83
2024/01/03 10:55:10;;;;;;;3.80;2.20;;;;;;;17.72;46.50;91554.94;2071734;69;20176;-84
2024/01/03 10:57:43;;;;;;;2.80;1.90;;;;;;;19.28;43.96;91541.34;2071610;69;20141;-83
2024/01/03 11:00:17;;;;;;;2.90;2.00;;;;;;;20.06;42.26;91537.06;2071627;69;20144;-83
2024/01/03 11:02:53;;;;;;;3.30;1.92;;;;;;;21.20;40.49;91543.41;2071496;69;20632;-77
2024/01/03 11:05:26;;;;;;;4.18;2.55;;;;;;;18.18;41.54;91545.69;2071582;69;20535;-81
2024/01/03 11:07:59;;;;;;;3.28;1.90;;;;;;;19.09;43.20;91540.44;2071816;69;20156;-82
2024/01/03 11:10:48;;;;;;;3.75;1.90;;;;;;;22.40;37.55;91531.34;2071771;69;20199;-79
2024/01/03 11:13:31;;;;;;;3.90;2.22;;;;;;;21.43;37.79;91532.03;2071519;69;20148;-83
2024/01/03 11:15:59;;;;;;;3.05;2.17;;;;;;;18.01;40.04;91539.06;2071485;69;20151;-82
2024/01/03 11:18:39;;;;;;;3.97;2.10;;;;;;;18.25;43.19;91541.53;2071203;69;20231;-83
2024/01/03 11:21:21;;;;;;;2.88;1.92;;;;;;;17.06;42.03;91527.50;2071389;69;20295;-84
2024/01/03 11:23:48;;;;;;;4.72;2.53;;;;;;;16.23;43.21;91535.06;2071689;69;20183;-83
2024/01/03 11:26:14;;;;;;;4.15;2.38;;;;;;;16.06;43.87;91538.94;2071645;69;20209;-83
2024/01/03 11:28:48;;;;;;;3.90;2.05;;;;;;;15.56;44.60;91508.72;2071460;69;20148;-83
2024/01/03 11:31:15;;;;;;;3.05;1.77;;;;;;;15.37;45.02;91515.34;2071765;69;20145;-83
2024/01/03 11:33:42;;;;;;;2.88;1.80;;;;;;;14.34;46.89;91509.16;2071446;69;20148;-78
2024/01/03 11:36:08;;;;;;;5.93;3.60;;;;;;;13.95;48.12;91496.00;2067966;69;20545;-78
2024/01/03 11:38:41;;;;;;;11.98;5.95;;;;;;;13.78;48.63;91497.63;2071880;69;20236;-77